Terminal Aerodrome Forecast
Issued by NWS Louisville, KY

Home | Current Version | Previous Version | Text Only | Print | Product List | Glossary On
Versions: 1 2 3 4 5 6 7 8 9 10 11 12 13 14 15 16 17 18 19
000
FTUS43 KLMK 291700
TAFBWG
TAF
KBWG 291730Z 2918/3018 24015G25KT P6SM BKN045
     FM292000 27013G22KT P6SM VCSH BKN025
     FM300100 31008KT P6SM BKN025
     FM301400 35007KT P6SM SCT025 BKN035=

USA.gov is the U.S. government's official web portal to all federal, state and local government web resources and services.